createdAt,value
2019-02-08T00:00:56.042Z,3.50
2019-02-08T00:03:25.366Z,3.30
2019-02-08T00:05:54.705Z,3.30
2019-02-08T00:08:24.370Z,3.40
2019-02-08T00:10:53.868Z,3.40
2019-02-08T00:13:23.133Z,3.30
2019-02-08T00:15:52.504Z,3.50
2019-02-08T00:18:21.841Z,3.50
2019-02-08T00:20:51.139Z,3.60
2019-02-08T00:23:27.216Z,3.40
2019-02-08T00:25:52.867Z,3.50
2019-02-08T00:28:22.142Z,3.50
2019-02-08T00:30:51.438Z,3.40
2019-02-08T00:33:20.724Z,3.50
2019-02-08T00:35:49.998Z,3.40
2019-02-08T00:38:19.768Z,3.50
2019-02-08T00:40:49.047Z,3.70
2019-02-08T00:43:18.411Z,3.70
2019-02-08T00:45:47.782Z,3.80
2019-02-08T00:48:17.113Z,3.80
2019-02-08T00:50:46.409Z,3.90
2019-02-08T00:53:15.691Z,3.90
2019-02-08T00:55:44.978Z,3.90
2019-02-08T00:58:14.280Z,3.90
2019-02-08T01:00:43.858Z,3.90
2019-02-08T01:03:13.327Z,3.80
2019-02-08T01:05:42.629Z,3.80
2019-02-08T01:08:12.000Z,3.80
2019-02-08T01:10:41.638Z,3.90
2019-02-08T01:13:11.095Z,4.00
2019-02-08T01:15:40.444Z,4.00
2019-02-08T01:18:09.973Z,4.00
2019-02-08T01:20:39.254Z,4.00
2019-02-08T01:23:08.551Z,4.10
2019-02-08T01:25:37.896Z,4.10
2019-02-08T01:28:07.189Z,4.00
2019-02-08T01:30:36.617Z,3.90
2019-02-08T01:33:06.542Z,4.00
2019-02-08T01:35:35.827Z,4.00
2019-02-08T01:38:05.393Z,4.10
2019-02-08T01:40:39.034Z,4.10
2019-02-08T01:43:09.210Z,4.00
2019-02-08T01:45:38.660Z,4.00
2019-02-08T01:48:09.095Z,4.00
2019-02-08T01:50:38.450Z,4.00
2019-02-08T01:53:07.739Z,3.90
2019-02-08T01:55:37.026Z,3.90
2019-02-08T01:58:07.556Z,4.00
2019-02-08T02:00:39.586Z,4.10
2019-02-08T02:03:10.377Z,4.10
2019-02-08T02:05:39.846Z,4.00
2019-02-08T02:08:09.426Z,4.20
2019-02-08T02:10:43.636Z,4.30
2019-02-08T02:13:13.102Z,4.30
2019-02-08T02:15:43.008Z,4.30
2019-02-08T02:18:13.347Z,4.20
2019-02-08T02:20:43.963Z,4.20
2019-02-08T02:23:15.470Z,4.20
2019-02-08T02:25:45.023Z,4.20
2019-02-08T02:28:15.360Z,4.30
2019-02-08T02:30:44.726Z,4.20
2019-02-08T02:33:14.574Z,4.20
2019-02-08T02:35:44.007Z,4.30
2019-02-08T02:38:13.422Z,4.30
2019-02-08T02:40:42.770Z,4.30
2019-02-08T02:43:12.192Z,4.40
2019-02-08T02:45:41.662Z,4.40
2019-02-08T02:48:12.587Z,4.50
2019-02-08T02:50:42.023Z,4.60
2019-02-08T02:53:11.479Z,4.50
2019-02-08T02:55:40.780Z,4.50
2019-02-08T02:58:10.265Z,4.50
2019-02-08T03:00:45.780Z,4.60
2019-02-08T03:03:15.608Z,4.50
2019-02-08T03:05:45.131Z,4.50
2019-02-08T03:08:15.453Z,4.50
2019-02-08T03:10:45.262Z,4.40
2019-02-08T03:13:14.623Z,4.40
2019-02-08T03:15:44.006Z,4.20
2019-02-08T03:18:13.356Z,4.30
2019-02-08T03:20:42.818Z,4.40
2019-02-08T03:23:12.110Z,4.40
2019-02-08T03:25:41.580Z,4.40
2019-02-08T03:28:10.910Z,4.40
2019-02-08T03:30:41.942Z,4.40
2019-02-08T03:33:11.266Z,4.50
2019-02-08T03:35:40.776Z,4.50
2019-02-08T03:38:10.244Z,4.50
2019-02-08T03:40:39.597Z,4.40
2019-02-08T03:43:08.958Z,4.20
2019-02-08T03:45:39.917Z,4.30
2019-02-08T03:48:09.943Z,4.40
2019-02-08T03:50:39.445Z,4.50
2019-02-08T03:53:09.609Z,4.60
2019-02-08T03:55:39.866Z,4.60
2019-02-08T03:58:09.602Z,4.50
2019-02-08T04:00:40.762Z,4.50
2019-02-08T04:03:10.072Z,4.60
2019-02-08T04:05:39.519Z,4.60
2019-02-08T04:08:08.847Z,4.50
2019-02-08T04:10:38.449Z,4.50
2019-02-08T04:13:07.755Z,4.50
2019-02-08T04:15:37.157Z,4.50
2019-02-08T04:18:06.683Z,4.60
2019-02-08T04:20:36.029Z,4.60
2019-02-08T04:23:05.396Z,4.60
2019-02-08T04:25:34.758Z,4.60
2019-02-08T04:28:04.067Z,4.70
2019-02-08T04:30:33.457Z,4.60
2019-02-08T04:33:03.378Z,4.60
2019-02-08T04:35:32.661Z,4.60
2019-02-08T04:38:01.988Z,4.50
2019-02-08T04:40:31.282Z,4.60
2019-02-08T04:43:00.613Z,4.50
2019-02-08T04:45:29.886Z,4.30
2019-02-08T04:47:59.191Z,4.30
2019-02-08T04:50:30.096Z,4.20
2019-02-08T04:52:59.390Z,4.40
2019-02-08T04:55:28.676Z,4.20
2019-02-08T04:57:57.983Z,4.40
2019-02-08T05:00:35.683Z,4.60
2019-02-08T05:03:06.000Z,4.60
2019-02-08T05:05:35.514Z,4.80
2019-02-08T05:08:05.327Z,4.80
2019-02-08T05:10:35.249Z,4.70
2019-02-08T05:13:05.287Z,4.70
2019-02-08T05:15:35.543Z,4.70
2019-02-08T05:18:05.181Z,4.80
2019-02-08T05:20:34.521Z,4.60
2019-02-08T05:23:04.084Z,4.50
2019-02-08T05:25:33.476Z,4.50
2019-02-08T05:28:02.831Z,4.70
2019-02-08T05:30:34.861Z,4.80
2019-02-08T05:33:06.016Z,4.10
2019-02-08T05:35:36.002Z,4.20
2019-02-08T05:38:05.424Z,4.50
2019-02-08T05:40:34.920Z,4.60
2019-02-08T05:43:06.194Z,4.70
2019-02-08T05:45:35.636Z,4.80
2019-02-08T05:48:05.407Z,4.80
2019-02-08T05:50:34.704Z,4.70
2019-02-08T05:53:05.421Z,4.80
2019-02-08T05:55:36.006Z,4.80
2019-02-08T05:58:06.026Z,4.90
2019-02-08T06:00:40.210Z,4.80
2019-02-08T06:03:09.557Z,4.80
2019-02-08T06:05:39.394Z,4.80
2019-02-08T06:08:09.035Z,4.80
2019-02-08T06:10:38.375Z,4.80
2019-02-08T06:13:09.185Z,4.90
2019-02-08T06:15:39.125Z,5.00
2019-02-08T06:18:09.623Z,5.00
2019-02-08T06:20:39.554Z,5.00
2019-02-08T06:23:10.039Z,5.10
2019-02-08T06:25:39.582Z,5.20
2019-02-08T06:28:08.867Z,5.20
2019-02-08T06:30:38.408Z,5.00
2019-02-08T06:33:08.018Z,5.00
2019-02-08T06:35:37.550Z,5.10
2019-02-08T06:38:07.374Z,5.20
2019-02-08T06:40:39.606Z,5.20
2019-02-08T06:43:08.894Z,5.20
2019-02-08T06:45:38.250Z,5.20
2019-02-08T06:48:09.682Z,4.90
2019-02-08T06:50:39.155Z,4.90
2019-02-08T06:53:08.451Z,4.90
2019-02-08T06:55:37.754Z,4.60
2019-02-08T06:58:19.546Z,4.80
2019-02-08T07:00:51.813Z,4.80
2019-02-08T07:03:25.646Z,4.90
2019-02-08T07:06:08.581Z,4.80
2019-02-08T07:08:56.038Z,4.60
2019-02-08T07:11:32.895Z,4.70
2019-02-08T07:14:13.129Z,4.80
2019-02-08T07:17:00.469Z,4.80
2019-02-08T07:19:47.534Z,4.50
2019-02-08T07:22:34.802Z,4.30
2019-02-08T07:25:18.611Z,4.40
2019-02-08T07:27:49.874Z,4.50
2019-02-08T07:30:23.989Z,4.50
2019-02-08T07:32:57.910Z,4.70
2019-02-08T07:35:28.907Z,4.60
2019-02-08T07:38:04.036Z,4.70
2019-02-08T07:40:54.606Z,4.80
2019-02-08T07:43:28.583Z,4.90
2019-02-08T07:46:20.558Z,4.70
2019-02-08T07:49:06.617Z,5.00
2019-02-08T07:51:43.563Z,5.10
2019-02-08T07:54:30.574Z,5.10
2019-02-08T07:57:01.507Z,5.10
2019-02-08T07:59:33.491Z,5.10
2019-02-08T08:02:04.447Z,5.10
2019-02-08T08:04:41.430Z,5.20
2019-02-08T08:07:18.871Z,5.40
2019-02-08T08:09:49.810Z,5.30
2019-02-08T08:12:26.921Z,5.30
2019-02-08T08:15:04.475Z,5.40
2019-02-08T08:17:52.115Z,5.20
2019-02-08T08:20:36.057Z,5.30
2019-02-08T08:23:07.238Z,5.30
2019-02-08T08:25:46.222Z,5.50
2019-02-08T08:28:17.144Z,5.70
2019-02-08T08:30:54.587Z,5.70
2019-02-08T08:33:29.850Z,5.70
2019-02-08T08:36:08.012Z,5.70
2019-02-08T08:39:01.362Z,5.70
2019-02-08T08:41:39.485Z,5.60
2019-02-08T08:44:14.768Z,5.40
2019-02-08T08:47:03.578Z,5.50
2019-02-08T08:49:44.990Z,5.50
2019-02-08T08:52:39.986Z,5.50
2019-02-08T08:55:42.281Z,5.60
2019-02-08T08:58:18.021Z,5.80
2019-02-08T09:00:56.293Z,5.90
2019-02-08T09:03:43.143Z,6.00
2019-02-08T09:06:21.318Z,6.10
2019-02-08T09:08:53.726Z,6.20
2019-02-08T09:11:49.633Z,6.60
2019-02-08T09:14:39.958Z,6.90
2019-02-08T09:17:21.034Z,7.10
2019-02-08T09:20:11.808Z,7.30
2019-02-08T09:23:17.884Z,7.60
2019-02-08T09:26:08.161Z,7.90
2019-02-08T09:29:09.212Z,8.10
2019-02-08T09:31:56.687Z,8.40
2019-02-08T09:34:47.491Z,8.50
2019-02-08T09:37:34.667Z,8.60
2019-02-08T09:40:42.178Z,9.00
2019-02-08T09:43:17.007Z,9.30
2019-02-08T09:46:20.762Z,9.60
2019-02-08T09:49:09.513Z,9.80
2019-02-08T09:51:53.680Z,9.90
2019-02-08T09:54:34.913Z,10.10
2019-02-08T09:57:31.346Z,10.30
2019-02-08T10:00:15.560Z,10.20
2019-02-08T10:02:59.998Z,10.30
2019-02-08T10:05:49.106Z,10.40
2019-02-08T10:08:51.331Z,10.40
2019-02-08T10:11:58.438Z,10.70
2019-02-08T10:14:45.799Z,10.80
2019-02-08T10:17:23.891Z,11.00
2019-02-08T10:20:01.962Z,11.40
2019-02-08T10:22:55.694Z,11.80
2019-02-08T10:25:52.256Z,12.50
2019-02-08T10:28:53.393Z,13.10
2019-02-08T10:31:37.678Z,14.40
2019-02-08T10:34:38.940Z,14.80
2019-02-08T10:37:33.747Z,15.30
2019-02-08T10:40:34.717Z,16.20
2019-02-08T10:43:18.355Z,16.00
2019-02-08T10:46:25.098Z,16.50
2019-02-08T10:49:22.928Z,17.60
2019-02-08T10:52:11.742Z,19.20
2019-02-08T10:54:49.964Z,18.60
2019-02-08T10:57:55.907Z,19.20
2019-02-08T11:00:36.886Z,19.50
2019-02-08T11:03:28.698Z,20.70
2019-02-08T11:06:18.979Z,20.70
2019-02-08T11:09:24.899Z,22.40
2019-02-08T11:12:17.715Z,25.20
2019-02-08T11:15:18.182Z,27.50
2019-02-08T11:18:19.572Z,27.80
2019-02-08T11:20:48.854Z,27.00
2019-02-08T11:23:18.143Z,25.50
2019-02-08T11:25:47.411Z,23.60
2019-02-08T11:28:16.742Z,24.00
2019-02-08T11:30:46.102Z,25.10
2019-02-08T11:33:15.398Z,24.20
2019-02-08T11:35:44.675Z,23.10
2019-02-08T11:38:13.966Z,21.10
2019-02-08T11:40:43.243Z,19.70
2019-02-08T11:43:12.542Z,18.90
2019-02-08T11:45:41.822Z,18.70
2019-02-08T11:48:11.275Z,18.20
2019-02-08T11:50:40.624Z,17.20
2019-02-08T11:53:09.949Z,16.70
2019-02-08T11:55:39.222Z,15.90
2019-02-08T11:58:08.767Z,15.80
2019-02-08T12:00:39.835Z,15.50
2019-02-08T12:03:09.131Z,14.40
2019-02-08T12:05:38.390Z,14.00
2019-02-08T12:08:08.314Z,14.10
2019-02-08T12:10:37.610Z,13.70
2019-02-08T12:13:07.348Z,13.50
2019-02-08T12:15:36.807Z,13.10
2019-02-08T12:18:06.225Z,13.10
2019-02-08T12:20:35.616Z,13.00
2019-02-08T12:23:05.232Z,13.20
2019-02-08T12:25:34.629Z,13.50
2019-02-08T12:28:04.183Z,14.00
2019-02-08T12:30:41.802Z,15.20
2019-02-08T12:33:11.107Z,16.00
2019-02-08T12:35:40.392Z,16.10
2019-02-08T12:38:09.667Z,16.10
2019-02-08T12:40:40.038Z,15.50
2019-02-08T12:43:09.361Z,14.90
2019-02-08T12:45:38.974Z,14.70
2019-02-08T12:48:08.424Z,14.60
2019-02-08T12:50:37.971Z,14.40
2019-02-08T12:53:07.266Z,14.40
2019-02-08T12:55:36.555Z,14.10
2019-02-08T12:58:05.831Z,13.70
2019-02-08T13:00:35.113Z,13.40
2019-02-08T13:03:04.643Z,13.10
2019-02-08T13:05:33.948Z,13.00
2019-02-08T13:08:03.207Z,12.90
2019-02-08T13:10:32.506Z,12.80
2019-02-08T13:13:01.782Z,12.70
2019-02-08T13:15:31.078Z,12.50
2019-02-08T13:18:00.356Z,12.40
2019-02-08T13:20:29.686Z,12.40
2019-02-08T13:22:58.962Z,12.50
2019-02-08T13:25:28.265Z,12.50
2019-02-08T13:27:57.539Z,12.40
2019-02-08T13:30:31.725Z,12.40
2019-02-08T13:33:01.123Z,12.40
2019-02-08T13:35:30.590Z,12.30
2019-02-08T13:37:59.911Z,12.30
2019-02-08T13:40:30.534Z,12.30
2019-02-08T13:42:59.866Z,12.30
2019-02-08T13:45:30.094Z,12.40
2019-02-08T13:47:59.478Z,12.20
2019-02-08T13:50:34.274Z,12.20
2019-02-08T13:53:03.735Z,12.20
2019-02-08T13:55:33.091Z,12.30
2019-02-08T13:58:02.505Z,12.20
2019-02-08T14:00:40.401Z,12.30
2019-02-08T14:03:09.815Z,12.40
2019-02-08T14:05:40.535Z,12.40
2019-02-08T14:08:09.903Z,12.40
2019-02-08T14:10:39.169Z,12.30
2019-02-08T14:13:08.725Z,12.20
2019-02-08T14:15:38.014Z,12.10
2019-02-08T14:18:07.456Z,12.00
2019-02-08T14:20:36.804Z,12.20
2019-02-08T14:23:06.096Z,12.10
2019-02-08T14:25:35.370Z,12.10
2019-02-08T14:28:04.753Z,12.10
2019-02-08T14:30:36.991Z,12.00
2019-02-08T14:33:06.593Z,11.90
2019-02-08T14:35:36.165Z,12.00
2019-02-08T14:38:08.700Z,12.20
2019-02-08T14:40:38.126Z,12.10
2019-02-08T14:43:07.418Z,12.00
2019-02-08T14:45:36.832Z,12.10
2019-02-08T14:48:06.264Z,12.20
2019-02-08T14:50:35.542Z,12.30
2019-02-08T14:53:05.476Z,12.30
2019-02-08T14:55:34.823Z,12.30
2019-02-08T14:58:07.325Z,12.40
2019-02-08T15:00:36.610Z,12.30
2019-02-08T15:03:06.085Z,12.40
2019-02-08T15:05:35.437Z,12.30
2019-02-08T15:08:05.115Z,12.40
2019-02-08T15:10:40.575Z,12.40
2019-02-08T15:13:09.892Z,12.50
2019-02-08T15:15:39.307Z,12.30
2019-02-08T15:18:08.796Z,12.40
2019-02-08T15:20:38.364Z,12.50
2019-02-08T15:23:07.723Z,12.70
2019-02-08T15:25:37.013Z,12.60
2019-02-08T15:28:06.380Z,12.40
2019-02-08T15:30:38.655Z,12.60
2019-02-08T15:33:07.962Z,12.60
2019-02-08T15:35:38.312Z,12.60
2019-02-08T15:38:07.746Z,12.40
2019-02-08T15:40:39.856Z,12.40
2019-02-08T15:43:10.279Z,12.30
2019-02-08T15:45:40.531Z,12.30
2019-02-08T15:48:09.961Z,12.10
2019-02-08T15:50:39.307Z,11.90
2019-02-08T15:53:08.605Z,11.80
2019-02-08T15:55:41.229Z,11.80
2019-02-08T15:58:10.532Z,11.70
2019-02-08T16:00:39.887Z,11.60
2019-02-08T16:03:10.859Z,11.50
2019-02-08T16:05:40.285Z,11.30
2019-02-08T16:08:09.664Z,11.30
2019-02-08T16:10:38.962Z,11.00
2019-02-08T16:13:08.239Z,10.90
2019-02-08T16:15:37.735Z,10.70
2019-02-08T16:18:07.294Z,10.60
2019-02-08T16:20:36.603Z,10.40
2019-02-08T16:23:05.960Z,10.50
2019-02-08T16:25:35.436Z,10.50
2019-02-08T16:28:05.250Z,10.30
2019-02-08T16:30:36.588Z,10.10
2019-02-08T16:33:07.798Z,10.10
2019-02-08T16:35:37.097Z,10.00
2019-02-08T16:38:07.217Z,9.80
2019-02-08T16:40:36.589Z,9.80
2019-02-08T16:43:06.610Z,9.70
2019-02-08T16:45:40.650Z,9.60
2019-02-08T16:48:12.312Z,9.60
2019-02-08T16:50:42.614Z,9.50
2019-02-08T16:53:12.839Z,9.40
2019-02-08T16:55:42.211Z,9.30
2019-02-08T16:58:12.634Z,9.30
2019-02-08T17:00:42.803Z,9.10
2019-02-08T17:03:13.719Z,9.00
2019-02-08T17:05:43.442Z,9.00
2019-02-08T17:08:12.950Z,9.20
2019-02-08T17:10:42.385Z,9.00
2019-02-08T17:13:11.707Z,8.90
2019-02-08T17:15:41.122Z,8.90
2019-02-08T17:18:11.477Z,9.10
2019-02-08T17:20:43.365Z,9.10
2019-02-08T17:23:12.815Z,9.10
2019-02-08T17:25:42.252Z,9.00
2019-02-08T17:28:11.911Z,8.80
2019-02-08T17:30:41.425Z,8.60
2019-02-08T17:33:10.875Z,8.60
2019-02-08T17:35:40.374Z,8.40
2019-02-08T17:38:09.828Z,8.60
2019-02-08T17:40:45.114Z,8.70
2019-02-08T17:43:14.488Z,8.70
2019-02-08T17:45:43.858Z,8.50
2019-02-08T17:48:15.654Z,8.30
2019-02-08T17:50:45.143Z,8.30
2019-02-08T17:53:14.497Z,8.20
2019-02-08T17:55:43.920Z,8.20
2019-02-08T17:58:13.219Z,8.20
2019-02-08T18:00:53.406Z,8.10
2019-02-08T18:03:22.953Z,8.20
2019-02-08T18:05:52.312Z,8.00
2019-02-08T18:08:21.759Z,7.90
2019-02-08T18:10:51.043Z,8.10
2019-02-08T18:13:20.349Z,7.90
2019-02-08T18:15:49.639Z,7.80
2019-02-08T18:18:19.095Z,8.00
2019-02-08T18:20:51.444Z,7.90
2019-02-08T18:23:20.759Z,7.50
2019-02-08T18:25:50.042Z,7.20
2019-02-08T18:28:19.391Z,7.20
2019-02-08T18:30:50.047Z,7.20
2019-02-08T18:33:19.397Z,7.20
2019-02-08T18:35:48.666Z,7.30
2019-02-08T18:38:18.006Z,7.30
2019-02-08T18:40:48.275Z,7.30
2019-02-08T18:43:17.596Z,7.50
2019-02-08T18:45:47.935Z,7.40
2019-02-08T18:48:17.225Z,7.20
2019-02-08T18:50:48.990Z,7.00
2019-02-08T18:53:18.271Z,7.10
2019-02-08T18:55:48.515Z,7.10
2019-02-08T18:58:19.425Z,7.00
2019-02-08T19:00:52.718Z,6.80
2019-02-08T19:03:23.150Z,6.70
2019-02-08T19:05:52.429Z,6.70
2019-02-08T19:08:21.732Z,6.60
2019-02-08T19:10:51.133Z,6.70
2019-02-08T19:13:20.532Z,6.60
2019-02-08T19:15:50.895Z,6.80
2019-02-08T19:18:20.377Z,6.50
2019-02-08T19:20:49.877Z,6.50
2019-02-08T19:23:19.271Z,6.50
2019-02-08T19:25:48.607Z,6.50
2019-02-08T19:28:18.027Z,6.50
2019-02-08T19:30:47.327Z,6.50
2019-02-08T19:33:17.321Z,6.60
2019-02-08T19:35:46.679Z,6.40
2019-02-08T19:38:15.965Z,6.30
2019-02-08T19:40:48.711Z,6.30
2019-02-08T19:43:18.003Z,6.40
2019-02-08T19:45:47.444Z,6.30
2019-02-08T19:48:17.910Z,6.30
2019-02-08T19:50:48.132Z,6.30
2019-02-08T19:53:17.495Z,6.20
2019-02-08T19:55:46.854Z,6.20
2019-02-08T19:58:16.182Z,6.30
2019-02-08T20:00:45.493Z,6.20
2019-02-08T20:03:14.848Z,6.10
2019-02-08T20:05:44.223Z,6.30
2019-02-08T20:08:14.358Z,6.30
2019-02-08T20:10:48.846Z,6.30
2019-02-08T20:13:18.138Z,6.40
2019-02-08T20:15:47.422Z,6.30
2019-02-08T20:18:16.720Z,6.00
2019-02-08T20:20:46.050Z,5.90
2019-02-08T20:23:15.343Z,5.90
2019-02-08T20:25:46.270Z,5.80
2019-02-08T20:28:17.857Z,5.70
2019-02-08T20:30:47.173Z,5.70
2019-02-08T20:33:16.485Z,5.60
2019-02-08T20:35:46.764Z,5.60
2019-02-08T20:38:16.073Z,5.50
2019-02-08T20:40:50.491Z,5.60
2019-02-08T20:43:19.895Z,5.60
2019-02-08T20:45:49.207Z,5.60
2019-02-08T20:48:20.824Z,5.50
2019-02-08T20:50:50.263Z,5.60
2019-02-08T20:53:20.103Z,5.70
2019-02-08T20:55:49.557Z,5.80
2019-02-08T20:58:19.357Z,5.90
2019-02-08T21:00:50.939Z,5.80
2019-02-08T21:03:21.183Z,5.70
2019-02-08T21:05:50.615Z,5.60
2019-02-08T21:08:20.285Z,5.60
2019-02-08T21:10:49.659Z,5.50
2019-02-08T21:13:19.067Z,5.40
2019-02-08T21:15:48.383Z,5.30
2019-02-08T21:18:17.698Z,5.30
2019-02-08T21:20:47.137Z,5.40
2019-02-08T21:23:16.530Z,5.40
2019-02-08T21:25:51.829Z,5.60
2019-02-08T21:28:16.882Z,5.70
2019-02-08T21:30:46.315Z,5.70
2019-02-08T21:33:15.635Z,5.70
2019-02-08T21:35:45.055Z,5.70
2019-02-08T21:38:14.368Z,5.60
2019-02-08T21:40:44.831Z,5.60
2019-02-08T21:43:14.219Z,5.60
2019-02-08T21:45:44.583Z,5.40
2019-02-08T21:48:14.614Z,5.20
2019-02-08T21:50:44.005Z,5.20
2019-02-08T21:53:13.350Z,5.20
2019-02-08T21:55:42.726Z,5.30
2019-02-08T21:58:12.161Z,5.30
2019-02-08T22:00:43.772Z,5.20
2019-02-08T22:03:13.255Z,5.30
2019-02-08T22:05:45.646Z,5.50
2019-02-08T22:08:14.941Z,5.50
2019-02-08T22:10:44.226Z,5.50
2019-02-08T22:13:13.543Z,5.40
2019-02-08T22:15:44.270Z,5.30
2019-02-08T22:18:13.579Z,5.20
2019-02-08T22:20:42.968Z,5.20
2019-02-08T22:23:12.273Z,5.30
2019-02-08T22:25:41.569Z,5.30
2019-02-08T22:28:10.994Z,5.30
2019-02-08T22:30:40.587Z,5.30
2019-02-08T22:33:10.953Z,5.30
2019-02-08T22:35:40.300Z,5.40
2019-02-08T22:38:09.758Z,5.30
2019-02-08T22:40:39.203Z,5.40
2019-02-08T22:43:08.495Z,5.40
2019-02-08T22:45:42.327Z,5.50
2019-02-08T22:48:11.686Z,5.20
2019-02-08T22:50:41.033Z,5.10
2019-02-08T22:53:10.355Z,5.10
2019-02-08T22:55:39.666Z,5.10
2019-02-08T22:58:09.978Z,5.20
2019-02-08T23:00:51.354Z,5.10
2019-02-08T23:03:20.630Z,4.80
2019-02-08T23:05:50.141Z,4.80
2019-02-08T23:08:19.455Z,4.70
2019-02-08T23:10:48.763Z,4.70
2019-02-08T23:13:18.111Z,4.60
2019-02-08T23:15:47.417Z,4.60
2019-02-08T23:18:16.772Z,4.70
2019-02-08T23:20:46.062Z,4.60
2019-02-08T23:23:15.342Z,4.60
2019-02-08T23:25:44.722Z,4.70
2019-02-08T23:28:13.997Z,4.80
2019-02-08T23:30:43.298Z,4.80
2019-02-08T23:33:12.613Z,4.70
2019-02-08T23:35:43.263Z,4.80
2019-02-08T23:38:12.742Z,4.70
2019-02-08T23:40:42.035Z,4.60
2019-02-08T23:43:11.325Z,4.50
2019-02-08T23:45:40.635Z,4.70
2019-02-08T23:48:09.978Z,4.50
2019-02-08T23:50:39.286Z,4.50
2019-02-08T23:53:08.724Z,4.50
2019-02-08T23:55:38.027Z,4.60
2019-02-08T23:58:07.442Z,4.50
